< Typhoon 197128 1971 Season Typhoon 197130 >
Typhoon 197129 (CARMEN)
General InformationTrack Information on Google Maps || Disaster Info.ResourceGoogle EarthGE AnimationAtom FeedGeoJSON
Detalied Best Track (Time Zone = UTC)
Year Month Day Hour Lat. Long. Pressure (hPa) Wind (kt) Class Image Chart
1971 9 22 12 16.0 145.0 1008 0 2 -- Chart
1971 9 22 18 16.2 144.0 1006 0 2 -- Chart
1971 9 23 00 16.5 143.0 1006 0 2 -- Chart
1971 9 23 06 17.0 142.0 1004 0 2 -- Chart
1971 9 23 12 17.4 141.0 1004 0 2 -- Chart
1971 9 23 18 17.7 140.0 1004 0 2 -- Chart
1971 9 24 00 18.8 139.0 1004 0 2 -- Chart
1971 9 24 06 20.0 138.0 1004 0 2 -- Chart
1971 9 24 12 21.0 136.7 1004 0 2 -- Chart
1971 9 24 18 21.6 135.5 1006 0 2 -- Chart
1971 9 25 00 22.3 134.0 1006 0 2 -- Chart
1971 9 25 06 24.4 133.0 1002 0 2 -- Chart
1971 9 25 12 26.6 132.7 1000 0 2 -- Chart
1971 9 25 18 29.3 133.2 995 0 9 -- Chart
1971 9 26 00 31.8 134.3 992 0 9 -- Chart
1971 9 26 06 34.3 136.4 990 0 9 -- Chart
1971 9 26 12 35.5 139.2 994 0 9 -- Chart
1971 9 26 18 37.0 143.0 994 0 6 -- Chart
1971 9 27 00 38.0 145.5 992 0 6 -- Chart
1971 9 27 06 38.0 148.5 994 0 6 -- Chart
1971 9 27 12 37.3 151.2 998 0 6 -- Chart
1971 9 27 18 36.6 153.0 1000 0 6 -- Chart
1971 9 28 00 36.0 155.0 1002 0 6 -- Chart
1971 9 28 06 36.5 157.5 1002 0 6 -- Chart
1971 9 28 12 37.0 160.0 1002 0 6 -- Chart
1971 9 28 18 37.5 162.8 1004 0 6 -- Chart
1971 9 29 00 38.5 167.0 1008 0 6 -- Chart
1971 9 29 06 40.3 172.0 1010 0 6 -- Chart
1971 9 29 12 42.0 177.0 1012 0 6 -- Chart
Japan Meteorological Agency Best Track Data | Correction Date : 2013-03-19
< Typhoon 197128 1971 Season Typhoon 197130 >

Help